createdAt,value
2018-03-04T00:01:28.211Z,201.07
2018-03-04T00:03:55.656Z,214.15
2018-03-04T00:06:23.095Z,201.55
2018-03-04T00:08:50.542Z,193.73
2018-03-04T00:11:17.987Z,186.43
2018-03-04T00:13:45.435Z,199.40
2018-03-04T00:16:12.901Z,175.38
2018-03-04T00:18:40.334Z,206.02
2018-03-04T00:21:07.784Z,179.73
2018-03-04T00:23:35.227Z,183.40
2018-03-04T00:26:03.819Z,168.18
2018-03-04T00:28:31.254Z,179.80
2018-03-04T00:30:58.706Z,172.23
2018-03-04T00:33:26.142Z,186.20
2018-03-04T00:35:53.578Z,204.93
2018-03-04T00:38:21.025Z,201.73
2018-03-04T00:40:48.564Z,200.90
2018-03-04T00:43:16.013Z,208.00
2018-03-04T00:45:43.455Z,216.60
2018-03-04T00:48:10.900Z,207.30
2018-03-04T00:50:38.342Z,192.70
2018-03-04T00:53:05.799Z,194.32
2018-03-04T00:55:33.240Z,198.52
2018-03-04T00:58:00.710Z,187.77
2018-03-04T01:00:28.141Z,190.90
2018-03-04T01:02:55.584Z,190.32
2018-03-04T01:05:23.031Z,177.25
2018-03-04T01:07:50.466Z,186.55
2018-03-04T01:10:17.925Z,162.60
2018-03-04T01:12:45.370Z,132.52
2018-03-04T01:15:12.821Z,153.23
2018-03-04T01:17:40.262Z,143.15
2018-03-04T01:20:07.703Z,136.48
2018-03-04T01:22:35.146Z,101.68
2018-03-04T01:25:02.592Z,121.57
2018-03-04T01:27:30.037Z,103.68
2018-03-04T01:29:57.481Z,116.35
2018-03-04T01:32:24.921Z,112.30
2018-03-04T01:34:52.356Z,118.95
2018-03-04T01:37:19.815Z,135.02
2018-03-04T01:39:47.250Z,133.32
2018-03-04T01:42:14.696Z,139.30
2018-03-04T01:44:42.188Z,136.75
2018-03-04T01:47:09.635Z,132.30
2018-03-04T01:49:37.074Z,124.22
2018-03-04T01:52:04.533Z,113.82
2018-03-04T01:54:31.966Z,106.95
2018-03-04T01:56:59.403Z,107.47
2018-03-04T01:59:26.858Z,116.97
2018-03-04T02:01:54.302Z,118.43
2018-03-04T02:04:21.759Z,118.18
2018-03-04T02:06:49.187Z,98.97
2018-03-04T02:09:16.630Z,132.82
2018-03-04T02:11:44.075Z,144.68
2018-03-04T02:14:11.522Z,139.62
2018-03-04T02:16:38.947Z,151.18
2018-03-04T02:19:06.414Z,133.40
2018-03-04T02:21:33.859Z,134.65
2018-03-04T02:24:01.287Z,134.75
2018-03-04T02:26:28.726Z,157.70
2018-03-04T02:28:56.155Z,150.93
2018-03-04T02:31:23.603Z,163.18
2018-03-04T02:33:51.047Z,176.25
2018-03-04T02:36:18.493Z,156.40
2018-03-04T02:38:45.931Z,179.98
2018-03-04T02:41:13.378Z,162.82
2018-03-04T02:43:40.811Z,162.30
2018-03-04T02:46:08.261Z,143.57
2018-03-04T02:48:35.708Z,157.23
2018-03-04T02:51:03.139Z,152.70
2018-03-04T02:53:30.580Z,138.93
2018-03-04T02:55:58.035Z,159.32
2018-03-04T02:58:25.465Z,141.30
2018-03-04T03:00:52.899Z,162.52
2018-03-04T03:03:20.339Z,157.55
2018-03-04T03:05:47.770Z,177.52
2018-03-04T03:08:15.207Z,174.43
2018-03-04T03:10:42.659Z,160.48
2018-03-04T03:13:10.094Z,153.77
2018-03-04T03:15:37.523Z,140.48
2018-03-04T03:18:04.966Z,149.20
2018-03-04T03:20:32.398Z,164.75
2018-03-04T03:22:59.842Z,175.10
2018-03-04T03:25:27.283Z,135.75
2018-03-04T03:27:54.715Z,138.70
2018-03-04T03:30:22.150Z,143.40
2018-03-04T03:32:49.595Z,115.03
2018-03-04T03:35:17.022Z,125.45
2018-03-04T03:37:44.455Z,135.23
2018-03-04T03:40:11.915Z,124.03
2018-03-04T03:42:39.347Z,130.27
2018-03-04T03:45:06.783Z,131.07
2018-03-04T03:47:34.230Z,142.30
2018-03-04T03:50:01.679Z,129.55
2018-03-04T03:52:29.151Z,146.30
2018-03-04T03:54:56.566Z,150.82
2018-03-04T03:57:23.999Z,160.63
2018-03-04T03:59:51.435Z,158.52
2018-03-04T04:02:18.889Z,150.73
2018-03-04T04:04:46.330Z,147.98
2018-03-04T04:07:13.758Z,144.80
2018-03-04T04:09:41.239Z,161.25
2018-03-04T04:12:08.667Z,151.60
2018-03-04T04:14:36.107Z,136.93
2018-03-04T04:17:03.560Z,186.48
2018-03-04T04:19:30.986Z,169.10
2018-03-04T04:21:58.423Z,181.25
2018-03-04T04:24:25.871Z,166.07
2018-03-04T04:26:53.313Z,169.50
2018-03-04T04:29:20.743Z,166.57
2018-03-04T04:31:48.252Z,191.05
2018-03-04T04:34:15.633Z,190.82
2018-03-04T04:36:43.065Z,184.05
2018-03-04T04:39:10.522Z,218.82
2018-03-04T04:41:37.957Z,208.35
2018-03-04T04:44:05.406Z,188.07
2018-03-04T04:46:32.854Z,196.93
2018-03-04T04:49:00.283Z,198.52
2018-03-04T04:51:27.714Z,179.63
2018-03-04T04:53:55.222Z,206.55
2018-03-04T04:56:22.603Z,182.77
2018-03-04T04:58:50.043Z,203.12
2018-03-04T05:01:17.487Z,207.25
2018-03-04T05:03:44.923Z,201.80
2018-03-04T05:06:12.362Z,203.30
2018-03-04T05:08:39.815Z,199.15
2018-03-04T05:11:07.263Z,205.98
2018-03-04T05:13:34.699Z,201.52
2018-03-04T05:16:02.147Z,175.45
2018-03-04T05:18:29.579Z,179.90
2018-03-04T05:20:57.011Z,178.30
2018-03-04T05:23:24.462Z,179.32
2018-03-04T05:25:51.919Z,169.00
2018-03-04T05:28:19.351Z,168.68
2018-03-04T05:30:46.802Z,168.65
2018-03-04T05:33:14.238Z,187.82
2018-03-04T05:35:41.678Z,179.65
2018-03-04T05:38:09.129Z,186.05
2018-03-04T05:40:36.557Z,190.90
2018-03-04T05:43:03.996Z,177.55
2018-03-04T05:45:31.434Z,166.37
2018-03-04T05:47:58.877Z,166.73
2018-03-04T05:50:26.307Z,179.87
2018-03-04T05:52:53.758Z,160.68
2018-03-04T05:55:21.193Z,169.02
2018-03-04T05:57:48.631Z,190.45
2018-03-04T06:00:16.078Z,187.95
2018-03-04T06:02:43.508Z,184.68
2018-03-04T06:05:10.943Z,163.80
2018-03-04T06:07:38.387Z,201.37
2018-03-04T06:10:05.820Z,183.60
2018-03-04T06:12:34.071Z,187.77
2018-03-04T06:15:01.526Z,179.18
2018-03-04T06:17:28.963Z,178.50
2018-03-04T06:19:56.396Z,189.93
2018-03-04T06:22:23.851Z,173.10
2018-03-04T06:24:51.282Z,162.30
2018-03-04T06:27:18.715Z,155.52
2018-03-04T06:29:46.156Z,183.73
2018-03-04T06:32:13.582Z,156.65
2018-03-04T06:34:41.007Z,159.35
2018-03-04T06:37:08.451Z,160.05
2018-03-04T06:39:35.889Z,166.25
2018-03-04T06:42:03.316Z,167.98
2018-03-04T06:44:30.759Z,157.20
2018-03-04T06:46:58.208Z,133.15
2018-03-04T06:49:25.629Z,132.35
2018-03-04T06:51:53.100Z,131.87
2018-03-04T06:54:20.527Z,123.30
2018-03-04T06:56:47.962Z,114.03
2018-03-04T06:59:15.402Z,130.82
2018-03-04T07:01:42.831Z,137.70
2018-03-04T07:04:10.266Z,140.70
2018-03-04T07:06:37.706Z,123.62
2018-03-04T07:09:05.139Z,133.75
2018-03-04T07:11:32.566Z,131.43
2018-03-04T07:14:00.020Z,155.40
2018-03-04T07:16:27.454Z,135.23
2018-03-04T07:18:54.887Z,139.05
2018-03-04T07:21:22.335Z,127.00
2018-03-04T07:23:49.770Z,123.82
2018-03-04T07:26:17.205Z,132.60
2018-03-04T07:28:44.652Z,121.53
2018-03-04T07:31:12.095Z,127.68
2018-03-04T07:33:39.531Z,122.60
2018-03-04T07:36:06.983Z,124.60
2018-03-04T07:38:34.418Z,138.90
2018-03-04T07:41:01.852Z,117.37
2018-03-04T07:43:29.422Z,113.25
2018-03-04T07:45:56.847Z,112.10
2018-03-04T07:48:24.279Z,107.43
2018-03-04T07:50:51.751Z,113.35
2018-03-04T07:53:19.179Z,105.70
2018-03-04T07:55:46.611Z,107.07
2018-03-04T07:58:14.059Z,108.57
2018-03-04T08:00:41.491Z,107.55
2018-03-04T08:03:08.915Z,97.82
2018-03-04T08:05:36.367Z,88.40
2018-03-04T08:08:03.801Z,98.25
2018-03-04T08:10:31.235Z,98.00
2018-03-04T08:12:58.679Z,98.18
2018-03-04T08:15:26.123Z,106.93
2018-03-04T08:17:53.552Z,95.05
2018-03-04T08:20:20.992Z,93.07
2018-03-04T08:22:48.433Z,99.15
2018-03-04T08:25:27.628Z,85.28
2018-03-04T08:28:06.747Z,79.03
2018-03-04T08:30:34.198Z,84.65
2018-03-04T08:33:01.739Z,82.97
2018-03-04T08:35:29.158Z,82.43
2018-03-04T08:37:56.604Z,64.45
2018-03-04T08:40:24.080Z,78.62
2018-03-04T08:42:51.468Z,75.25
2018-03-04T08:45:18.915Z,74.15
2018-03-04T08:47:46.360Z,72.80
2018-03-04T08:50:13.784Z,65.85
2018-03-04T08:52:41.233Z,56.25
2018-03-04T08:55:08.671Z,58.25
2018-03-04T08:57:36.104Z,61.05
2018-03-04T09:00:03.555Z,51.15
2018-03-04T09:02:30.993Z,56.85
2018-03-04T09:05:00.037Z,57.43
2018-03-04T09:07:28.849Z,67.07
2018-03-04T09:09:56.346Z,64.00
2018-03-04T09:12:23.798Z,52.92
2018-03-04T09:14:51.240Z,47.60
2018-03-04T09:17:18.680Z,54.20
2018-03-04T09:19:47.064Z,46.90
2018-03-04T09:22:17.364Z,48.40
2018-03-04T09:24:44.930Z,50.83
2018-03-04T09:27:12.355Z,42.77
2018-03-04T09:29:40.528Z,40.20
2018-03-04T09:32:07.940Z,47.93
2018-03-04T09:34:36.729Z,44.57
2018-03-04T09:37:04.171Z,41.20
2018-03-04T09:39:31.594Z,39.80
2018-03-04T09:41:59.380Z,44.33
2018-03-04T09:44:27.225Z,45.67
2018-03-04T09:46:55.555Z,38.57
2018-03-04T09:49:28.996Z,39.77
2018-03-04T09:51:56.442Z,37.83
2018-03-04T09:54:23.882Z,41.67
2018-03-04T09:56:51.320Z,33.17
2018-03-04T09:59:18.891Z,36.27
2018-03-04T10:01:46.625Z,32.10
2018-03-04T10:04:16.771Z,33.93
2018-03-04T10:06:44.199Z,32.77
2018-03-04T10:09:11.632Z,34.70
2018-03-04T10:11:39.487Z,27.93
2018-03-04T10:14:06.918Z,35.87
2018-03-04T10:16:34.358Z,29.83
2018-03-04T10:19:02.370Z,27.90
2018-03-04T10:21:30.028Z,32.57
2018-03-04T10:23:57.738Z,21.00
2018-03-04T10:26:25.159Z,27.03
2018-03-04T10:28:52.584Z,17.50
2018-03-04T10:31:20.015Z,22.33
2018-03-04T10:33:47.444Z,23.63
2018-03-04T10:36:14.868Z,19.33
2018-03-04T10:38:42.310Z,27.23
2018-03-04T10:41:09.734Z,27.10
2018-03-04T10:43:37.155Z,25.20
2018-03-04T10:46:04.590Z,21.07
2018-03-04T10:48:32.021Z,16.57
2018-03-04T10:50:59.442Z,27.10
2018-03-04T10:53:26.883Z,19.87
2018-03-04T10:55:54.309Z,21.20
2018-03-04T10:58:21.734Z,16.87
2018-03-04T11:00:54.687Z,25.10
2018-03-04T11:03:22.110Z,14.30
2018-03-04T11:05:49.526Z,15.43
2018-03-04T11:08:16.959Z,18.50
2018-03-04T11:10:44.383Z,14.90
2018-03-04T11:13:11.798Z,21.10
2018-03-04T11:15:39.231Z,16.40
2018-03-04T11:18:06.648Z,23.37
2018-03-04T11:20:34.089Z,19.70
2018-03-04T11:23:01.526Z,18.90
2018-03-04T11:25:28.951Z,16.20
2018-03-04T11:27:56.370Z,20.50
2018-03-04T11:30:23.819Z,12.60
2018-03-04T11:32:51.235Z,17.10
2018-03-04T11:35:18.670Z,13.83
2018-03-04T11:37:46.103Z,16.70
2018-03-04T11:40:13.526Z,19.93
2018-03-04T11:42:40.963Z,21.30
2018-03-04T11:45:08.396Z,16.97
2018-03-04T11:47:36.078Z,11.40
2018-03-04T11:50:03.538Z,11.07
2018-03-04T11:52:30.968Z,11.03
2018-03-04T11:54:58.399Z,12.40
2018-03-04T11:57:25.815Z,10.33
2018-03-04T11:59:53.255Z,13.67
2018-03-04T12:02:20.674Z,18.67
2018-03-04T12:04:48.082Z,6.37
2018-03-04T12:07:15.570Z,5.33
2018-03-04T12:09:42.988Z,10.70
2018-03-04T12:12:10.405Z,7.57
2018-03-04T12:14:37.881Z,4.87
2018-03-04T12:17:05.260Z,3.80
2018-03-04T12:19:32.689Z,12.53
2018-03-04T12:22:00.120Z,4.47
2018-03-04T12:24:27.535Z,5.93
2018-03-04T12:26:54.955Z,4.60
2018-03-04T12:29:22.392Z,5.93
2018-03-04T12:31:49.811Z,4.83
2018-03-04T12:34:17.218Z,5.07
2018-03-04T12:36:44.692Z,5.70
2018-03-04T12:39:12.141Z,4.93
2018-03-04T12:41:39.562Z,5.17
2018-03-04T12:44:06.991Z,8.57
2018-03-04T12:46:34.421Z,5.77
2018-03-04T12:49:01.914Z,5.63
2018-03-04T12:51:29.338Z,9.10
2018-03-04T12:53:56.771Z,8.23
2018-03-04T12:56:24.183Z,5.00
2018-03-04T12:58:51.635Z,7.97
2018-03-04T13:01:19.122Z,6.73
2018-03-04T13:03:46.499Z,5.43
2018-03-04T13:06:13.920Z,7.60
2018-03-04T13:08:41.351Z,5.47
2018-03-04T13:11:08.775Z,10.47
2018-03-04T13:13:36.205Z,7.70
2018-03-04T13:16:03.634Z,13.27
2018-03-04T13:18:31.085Z,10.90
2018-03-04T13:20:58.513Z,8.43
2018-03-04T13:23:25.938Z,7.10
2018-03-04T13:25:53.354Z,8.33
2018-03-04T13:28:20.787Z,7.83
2018-03-04T13:30:48.207Z,11.43
2018-03-04T13:33:15.644Z,10.33
2018-03-04T13:35:43.087Z,12.97
2018-03-04T13:38:10.495Z,10.87
2018-03-04T13:40:37.961Z,7.77
2018-03-04T13:43:05.359Z,6.90
2018-03-04T13:45:32.770Z,7.70
2018-03-04T13:48:00.199Z,13.83
2018-03-04T13:50:27.626Z,9.90
2018-03-04T13:52:55.052Z,14.40
2018-03-04T13:55:22.502Z,15.83
2018-03-04T13:57:49.936Z,11.37
2018-03-04T14:00:17.360Z,13.97
2018-03-04T14:02:44.785Z,9.03
2018-03-04T14:05:12.199Z,9.20
2018-03-04T14:07:39.619Z,11.93
2018-03-04T14:10:07.074Z,10.20
2018-03-04T14:12:34.527Z,13.13
2018-03-04T14:15:02.007Z,11.37
2018-03-04T14:17:29.641Z,10.27
2018-03-04T14:19:58.218Z,7.93
2018-03-04T14:22:25.750Z,11.20
2018-03-04T14:24:53.196Z,14.27
2018-03-04T14:27:20.745Z,8.83
2018-03-04T14:29:48.232Z,17.23
2018-03-04T14:32:15.889Z,14.37
2018-03-04T14:34:43.647Z,10.90
2018-03-04T14:37:11.112Z,8.80
2018-03-04T14:39:38.570Z,11.90
2018-03-04T14:42:05.985Z,13.73
2018-03-04T14:44:33.423Z,15.47
2018-03-04T14:47:00.846Z,11.00
2018-03-04T14:49:28.269Z,10.73
2018-03-04T14:51:55.703Z,9.47
2018-03-04T14:54:23.132Z,22.20
2018-03-04T14:56:50.545Z,8.37
2018-03-04T14:59:18.007Z,8.90
2018-03-04T15:01:45.396Z,12.13
2018-03-04T15:04:12.819Z,13.63
2018-03-04T15:06:40.234Z,7.30
2018-03-04T15:09:07.669Z,11.40
2018-03-04T15:11:35.090Z,12.90
2018-03-04T15:14:02.507Z,12.10
2018-03-04T15:16:29.936Z,12.37
2018-03-04T15:18:57.351Z,8.40
2018-03-04T15:21:24.854Z,13.50
2018-03-04T15:23:52.265Z,10.30
2018-03-04T15:26:19.686Z,13.63
2018-03-04T15:28:47.109Z,8.23
2018-03-04T15:31:14.539Z,18.97
2018-03-04T15:33:41.966Z,7.70
2018-03-04T15:36:09.387Z,13.13
2018-03-04T15:38:36.807Z,9.47
2018-03-04T15:41:04.236Z,15.50
2018-03-04T15:43:31.657Z,11.23
2018-03-04T15:45:59.082Z,12.67
2018-03-04T15:48:26.492Z,11.90
2018-03-04T15:50:53.926Z,12.93
2018-03-04T15:53:21.339Z,18.93
2018-03-04T15:55:48.853Z,21.63
2018-03-04T15:58:16.271Z,10.93
2018-03-04T16:00:43.691Z,12.50
2018-03-04T16:03:11.118Z,12.03
2018-03-04T16:05:38.538Z,13.43
2018-03-04T16:08:05.955Z,18.40
2018-03-04T16:10:33.387Z,17.47
2018-03-04T16:13:00.803Z,17.73
2018-03-04T16:15:28.226Z,17.23
2018-03-04T16:17:55.668Z,18.07
2018-03-04T16:20:23.083Z,17.57
2018-03-04T16:22:50.510Z,24.63
2018-03-04T16:25:17.961Z,20.23
2018-03-04T16:27:45.386Z,20.37
2018-03-04T16:30:12.827Z,24.40
2018-03-04T16:32:40.266Z,19.40
2018-03-04T16:35:07.788Z,21.93
2018-03-04T16:37:35.230Z,22.27
2018-03-04T16:40:02.650Z,23.47
2018-03-04T16:42:30.087Z,21.50
2018-03-04T16:44:57.538Z,21.80
2018-03-04T16:47:25.011Z,22.90
2018-03-04T16:49:52.427Z,21.67
2018-03-04T16:52:19.931Z,26.00
2018-03-04T16:54:47.291Z,27.17
2018-03-04T16:57:14.714Z,26.83
2018-03-04T16:59:42.162Z,27.83
2018-03-04T17:02:09.606Z,29.40
2018-03-04T17:04:37.038Z,29.60
2018-03-04T17:07:04.448Z,32.70
2018-03-04T17:09:31.863Z,26.80
2018-03-04T17:11:59.283Z,26.60
2018-03-04T17:14:26.707Z,33.03
2018-03-04T17:16:54.126Z,33.77
2018-03-04T17:19:21.549Z,41.47
2018-03-04T17:21:48.978Z,38.27
2018-03-04T17:24:16.393Z,46.23
2018-03-04T17:26:44.117Z,37.50
2018-03-04T17:29:11.535Z,44.90
2018-03-04T17:31:38.960Z,48.20
2018-03-04T17:34:06.375Z,37.97
2018-03-04T17:36:33.812Z,51.20
2018-03-04T17:39:01.239Z,48.37
2018-03-04T17:41:28.660Z,55.70
2018-03-04T17:43:56.095Z,58.70
2018-03-04T17:46:23.511Z,63.70
2018-03-04T17:48:50.926Z,56.63
2018-03-04T17:51:18.382Z,57.40
2018-03-04T17:53:45.800Z,54.03
2018-03-04T17:56:13.211Z,69.07
2018-03-04T17:58:40.642Z,57.57
2018-03-04T18:01:08.067Z,53.37
2018-03-04T18:03:35.516Z,60.43
2018-03-04T18:06:02.915Z,59.13
2018-03-04T18:08:30.330Z,69.67
2018-03-04T18:10:57.746Z,53.67
2018-03-04T18:13:25.217Z,66.23
2018-03-04T18:15:52.586Z,77.57
2018-03-04T18:18:20.014Z,65.80
2018-03-04T18:20:47.466Z,71.27
2018-03-04T18:23:14.870Z,74.37
2018-03-04T18:25:42.287Z,78.37
2018-03-04T18:28:09.719Z,76.40
2018-03-04T18:30:37.134Z,76.27
2018-03-04T18:33:04.547Z,76.80
2018-03-04T18:35:31.995Z,84.73
2018-03-04T18:37:59.416Z,81.63
2018-03-04T18:40:26.830Z,78.53
2018-03-04T18:42:54.311Z,84.10
2018-03-04T18:45:21.721Z,96.50
2018-03-04T18:47:49.140Z,100.57
2018-03-04T18:50:16.571Z,81.83
2018-03-04T18:52:43.973Z,85.53
2018-03-04T18:55:11.395Z,105.60
2018-03-04T18:57:38.834Z,131.13
2018-03-04T19:00:06.254Z,131.27
2018-03-04T19:02:33.683Z,113.57
2018-03-04T19:05:01.119Z,108.00
2018-03-04T19:07:28.538Z,107.77
2018-03-04T19:09:55.967Z,111.37
2018-03-04T19:12:23.430Z,122.73
2018-03-04T19:14:50.857Z,105.53
2018-03-04T19:17:18.275Z,105.40
2018-03-04T19:19:46.051Z,115.07
2018-03-04T19:22:13.476Z,99.97
2018-03-04T19:24:40.895Z,95.67
2018-03-04T19:27:08.345Z,113.43
2018-03-04T19:29:35.770Z,97.90
2018-03-04T19:32:03.192Z,96.60
2018-03-04T19:34:30.611Z,89.13
2018-03-04T19:36:58.051Z,101.07
2018-03-04T19:39:25.496Z,91.50
2018-03-04T19:41:52.891Z,111.67
2018-03-04T19:44:20.329Z,100.03
2018-03-04T19:46:47.766Z,102.70
2018-03-04T19:49:15.180Z,98.23
2018-03-04T19:51:42.635Z,94.23
2018-03-04T19:54:10.050Z,89.70
2018-03-04T19:56:37.475Z,78.87
2018-03-04T19:59:04.913Z,92.10
2018-03-04T20:01:32.327Z,82.40
2018-03-04T20:03:59.766Z,83.03
2018-03-04T20:06:27.197Z,81.63
2018-03-04T20:08:54.623Z,88.80
2018-03-04T20:11:22.049Z,81.47
2018-03-04T20:13:49.495Z,84.00
2018-03-04T20:16:16.912Z,90.10
2018-03-04T20:18:44.336Z,85.17
2018-03-04T20:21:11.752Z,103.17
2018-03-04T20:23:40.179Z,82.23
2018-03-04T20:26:07.635Z,91.50
2018-03-04T20:28:35.027Z,84.10
2018-03-04T20:31:02.446Z,73.93
2018-03-04T20:33:29.882Z,76.87
2018-03-04T20:35:57.294Z,95.97
2018-03-04T20:38:24.736Z,73.43
2018-03-04T20:40:52.158Z,90.90
2018-03-04T20:43:19.661Z,85.30
2018-03-04T20:45:47.092Z,95.47
2018-03-04T20:48:14.512Z,87.30
2018-03-04T20:50:41.945Z,79.63
2018-03-04T20:53:09.450Z,79.77
2018-03-04T20:55:36.888Z,98.90
2018-03-04T20:58:04.290Z,93.30
2018-03-04T21:00:31.724Z,80.43
2018-03-04T21:02:59.142Z,77.77
2018-03-04T21:05:26.555Z,86.77
2018-03-04T21:07:53.981Z,81.97
2018-03-04T21:10:21.523Z,87.03
2018-03-04T21:12:48.921Z,98.93
2018-03-04T21:15:16.359Z,92.23
2018-03-04T21:17:43.780Z,97.10
2018-03-04T21:20:11.195Z,95.10
2018-03-04T21:22:38.632Z,85.73
2018-03-04T21:25:06.047Z,77.10
2018-03-04T21:27:33.475Z,114.10
2018-03-04T21:30:00.903Z,113.50
2018-03-04T21:32:28.326Z,108.43
2018-03-04T21:34:55.774Z,101.13
2018-03-04T21:37:23.203Z,86.83
2018-03-04T21:39:50.622Z,85.97
2018-03-04T21:42:18.055Z,97.67
2018-03-04T21:44:45.474Z,86.40
2018-03-04T21:47:12.906Z,86.70
2018-03-04T21:49:40.335Z,80.23
2018-03-04T21:52:07.767Z,85.87
2018-03-04T21:54:35.199Z,82.63
2018-03-04T21:57:02.620Z,89.03
2018-03-04T21:59:30.031Z,86.83
2018-03-04T22:01:57.458Z,87.53
2018-03-04T22:04:24.888Z,86.30
2018-03-04T22:06:52.295Z,90.30
2018-03-04T22:09:19.722Z,84.17
2018-03-04T22:11:47.164Z,94.77
2018-03-04T22:14:14.581Z,83.10
2018-03-04T22:16:42.023Z,98.37
2018-03-04T22:19:09.456Z,98.63
2018-03-04T22:21:36.870Z,82.07
2018-03-04T22:24:04.305Z,99.47
2018-03-04T22:26:31.734Z,76.93
2018-03-04T22:28:59.173Z,98.10
2018-03-04T22:31:26.598Z,104.37
2018-03-04T22:33:54.026Z,78.00
2018-03-04T22:36:21.448Z,80.10
2018-03-04T22:38:48.935Z,103.67
2018-03-04T22:41:16.367Z,92.80
2018-03-04T22:43:43.778Z,74.63
2018-03-04T22:46:11.212Z,64.17
2018-03-04T22:48:38.647Z,51.37
2018-03-04T22:51:06.065Z,46.10
2018-03-04T22:53:33.482Z,56.37
2018-03-04T22:56:00.906Z,43.17
2018-03-04T22:58:33.228Z,28.53
2018-03-04T23:01:00.651Z,29.00
2018-03-04T23:03:28.083Z,39.17
2018-03-04T23:05:55.495Z,41.23
2018-03-04T23:08:22.907Z,33.47
2018-03-04T23:10:50.344Z,15.60
2018-03-04T23:13:17.751Z,15.53
2018-03-04T23:15:45.167Z,12.30
2018-03-04T23:18:12.590Z,11.77
2018-03-04T23:20:40.007Z,9.50
2018-03-04T23:23:07.432Z,11.90
2018-03-04T23:25:34.859Z,11.33
2018-03-04T23:28:02.271Z,9.33
2018-03-04T23:30:29.679Z,10.97
2018-03-04T23:32:57.102Z,10.87
2018-03-04T23:35:24.528Z,14.30
2018-03-04T23:37:51.939Z,14.87
2018-03-04T23:40:19.359Z,10.80
2018-03-04T23:42:46.795Z,13.30
2018-03-04T23:45:14.201Z,15.20
2018-03-04T23:47:41.637Z,10.53
2018-03-04T23:50:09.047Z,10.73
2018-03-04T23:52:36.467Z,11.87
2018-03-04T23:55:03.887Z,10.90
2018-03-04T23:57:31.298Z,12.53
2018-03-04T23:59:58.747Z,9.80
